• Join FlightAware (Why Join?)
  • Login
  • US Flag 
10:32AM EDT


 

Airport Tracker/Info


-or-


 

Live Flight TrackerFlight Track Log ✈ ASQ5861 ✈ 23-Apr-2013 ✈ CYWG - KORD

Flight Track Log - Related Links

Times and Time Zones

All times are in EDT time to prevent confusion due to time zone crossing. See the ASQ5861 flight status page for this flight to view local times or setup timezone preferences in your user account.

Time Position Orientation Groundspeed Altitude Reporting Facility
EDT Latitude Longitude Course Direction KTS MPH feet Rate Location/Type
06:53PM 49.8833 -97.2333 150° Southeast 160 184 2,100  Level Winnipeg Center
06:54PM 49.8333 -97.2333 180° South 210 242 4,400 2,280 Climbing Winnipeg Center
06:55PM 49.7667 -97.1667 147° Southeast 260 299 6,700 2,460 Climbing Winnipeg Center
06:56PM 49.7333 -97.0667 117° Southeast 280 322 9,400 2,220 Climbing Winnipeg Center
06:57PM 49.6667 -97.0000 147° Southeast 300 345 11,200 1,740 Climbing Winnipeg Center
06:58PM 49.5833 -96.9167 147° Southeast 330 380 12,900 1,800 Climbing Winnipeg Center
06:59PM 49.4555 -96.7882 150° Southeast  Level FlightAware Approximate
06:59PM 49.5000 -96.8333 147° Southeast 340 391 14,900  Level Winnipeg Center
07:00PM 49.4333 -96.7667 147° Southeast 350 403 16,600 1,500 Climbing Winnipeg Center
07:01PM 49.3500 -96.6833 147° Southeast 360 414 17,900 1,260 Climbing Winnipeg Center
07:02PM 49.2500 -96.5833 147° Southeast 370 426 19,200 1,260 Climbing Winnipeg Center
07:03PM 49.1667 -96.5000 147° Southeast 390 449 20,500 1,440 Climbing Winnipeg Center
07:04PM 49.0500 -96.4000 151° Southeast 390 449 22,100 1,500 Climbing Winnipeg Center
07:05PM 48.9667 -96.3333 152° Southeast 390 449 23,600 1,380 Climbing Winnipeg Center
07:06PM 48.8667 -96.2500 151° Southeast 390 449 24,900 660 Climbing Winnipeg Center
07:07PM 48.7667 -96.1500 147° Southeast 410 472 25,000  Climbing Winnipeg Center
07:08PM 48.6667 -96.0500 147° Southeast 430 495 25,000  Level Winnipeg Center
07:09PM 48.6581 -96.0419 148° Southeast 431 496 25,000  Level Minneapolis Center
07:10PM 48.5517 -95.9444 149° Southeast 442 509 25,000  Level Minneapolis Center
07:11PM 48.4444 -95.8458 149° Southeast 448 516 25,000  Level Minneapolis Center
07:12PM 48.3153 -95.7300 149° Southeast 450 518 25,000  Level Minneapolis Center
07:13PM 48.1869 -95.6136 149° Southeast 450 518 25,000  Level Minneapolis Center
07:14PM 48.0794 -95.5169 149° Southeast 450 518 25,000  Level Minneapolis Center
07:15PM 47.9653 -95.4153 149° Southeast 452 520 25,000  Level Minneapolis Center
07:16PM 47.8575 -95.3208 150° Southeast 452 520 25,000  Level Minneapolis Center
07:17PM 47.7511 -95.2244 149° Southeast 451 519 25,000  Level Minneapolis Center
07:18PM 47.6639 -95.1492 150° Southeast 452 520 25,000  Level Minneapolis Center
07:19PM 47.5119 -95.0167 149° Southeast 453 521 25,000  Level Minneapolis Center
07:20PM 47.4061 -94.9217 149° Southeast 451 519 25,000  Level Minneapolis Center
07:22PM 47.2750 -94.8094 150° Southeast 453 521 25,000  Level Minneapolis Center
07:23PM 47.1661 -94.7158 150° Southeast 456 525 25,000  Level Minneapolis Center
07:24PM 47.0567 -94.6233 150° Southeast 456 525 25,000  Level Minneapolis Center
07:25PM 46.9475 -94.5292 149° Southeast 456 525 25,000  Level Minneapolis Center
07:26PM 46.8164 -94.4178 150° Southeast 457 526 25,000  Level Minneapolis Center
07:27PM 46.7072 -94.3264 150° Southeast 457 526 25,000  Level Minneapolis Center
07:28PM 46.6200 -94.2536 150° Southeast 456 525 25,000  Level Minneapolis Center
07:29PM 46.4908 -94.1447 150° Southeast 453 521 25,000  Level Minneapolis Center
07:30PM 46.3819 -94.0536 150° Southeast 454 522 25,000  Level Minneapolis Center
07:31PM 46.2683 -93.9817 156° South 451 519 25,000  Level Minneapolis Center
07:32PM 46.1303 -93.9069 159° South 443 510 25,000  Level Minneapolis Center
07:33PM 46.0147 -93.8394 158° South 446 513 25,000  Level Minneapolis Center
07:34PM 45.8983 -93.7783 160° South 446 513 25,000  Level Minneapolis Center
07:35PM 45.7831 -93.7169 160° South 445 512 25,000  Level Minneapolis Center
07:36PM 45.6681 -93.6536 159° South 445 512 25,000  Level Minneapolis Center
07:37PM 45.5292 -93.5789 159° South 445 512 25,000  Level Minneapolis Center
07:38PM 45.4136 -93.5164 159° South 446 513 25,000  Level Minneapolis Center
07:39PM 45.2975 -93.4536 159° South 447 514 25,000  Level Minneapolis Center
07:40PM 45.1817 -93.3914 159° South 446 513 25,000  Level Minneapolis Center
07:41PM 45.0975 -93.2561 131° Southeast 465 535 25,000  Level Minneapolis Center
07:42PM 45.0278 -93.0953 121° Southeast 476 548 25,000  Level Minneapolis Center
07:43PM 44.9586 -92.9294 120° Southeast 483 556 25,000  Level Minneapolis Center
07:44PM 44.8886 -92.7644 121° Southeast 487 560 25,000  Level Minneapolis Center
07:45PM 44.8003 -92.5775 124° Southeast 476 548 25,000  Level Minneapolis Center
07:46PM 44.7258 -92.4272 125° Southeast 470 541 25,000  Level Minneapolis Center
07:47PM 44.6514 -92.2736 124° Southeast 473 544 25,000  Level Minneapolis Center
07:48PM 44.5764 -92.1203 124° Southeast 476 548 25,000  Level Minneapolis Center
07:49PM 44.5011 -91.9672 125° Southeast 478 550 25,000  Level Minneapolis Center
07:50PM 44.4267 -91.8156 124° Southeast 476 548 25,000  Level Minneapolis Center
07:51PM 44.3517 -91.6644 125° Southeast 474 545 25,000  Level Minneapolis Center
07:52PM 44.2625 -91.4892 125° Southeast 466 536 25,000  Level Minneapolis Center
07:53PM 44.2044 -91.3750 125° Southeast 459 528 25,000  Level Minneapolis Center
07:55PM 44.1161 -91.1981 125° Southeast 453 521 25,000  Level Minneapolis Center
07:56PM 44.0436 -91.0553 125° Southeast 453 521 25,000  Level Minneapolis Center
07:57PM 43.9575 -90.8867 125° Southeast 449 517 25,000  Level Minneapolis Center
07:58PM 43.8853 -90.7444 125° Southeast 453 521 25,000  Level Minneapolis Center
07:59PM 43.8103 -90.5997 126° Southeast 462 532 25,000  Level Minneapolis Center
08:00PM 43.7372 -90.4594 126° Southeast 453 521 25,000 -480 Level Minneapolis Center
08:02PM 43.5544 -90.1106 126° Southeast 459 528 23,400 -900 Descending Chicago Center
08:03PM 43.4817 -89.9703 126° Southeast 453 521 22,100 -1,200 Descending Chicago Center
08:04PM 43.3972 -89.8136 127° Southeast 438 504 21,000 -540 Descending Chicago Center
08:05PM 43.3247 -89.6772 126° Southeast 442 509 21,000  Level Chicago Center
08:06PM 43.2531 -89.5436 126° Southeast 438 504 21,000 -180 Level Chicago Center
08:07PM 43.1803 -89.4072 126° Southeast 443 510 20,700 -1,080 Descending Chicago Center
08:08PM 43.0975 -89.3214 143° Southeast 377 434 18,900 -1,560 Descending Chicago Center
08:09PM 43.0131 -89.2350 143° Southeast 381 438 17,500 -1,500 Descending Chicago Center
08:10PM 42.9136 -89.1197 140° Southeast 401 461 15,900 -1,260 Descending Chicago Center
08:11PM 42.8303 -89.0225 139° Southeast 397 457 14,900 -960 Descending Chicago Center
08:13PM 42.7531 -88.9319 139° Southeast 374 430 14,000 -900 Descending Chicago Center
08:14PM 42.6747 -88.8442 141° Southeast 366 421 13,100 -960 Descending Chicago Center
08:15PM 42.5975 -88.7547 140° Southeast 365 420 12,100 -1,020 Descending Chicago Center
08:16PM 42.5075 -88.6522 140° Southeast 362 417 11,000 -1,020 Descending Chicago Center
08:17PM 42.4328 -88.5658 140° Southeast 356 410 10,100 -540 Descending Chicago Center
08:18PM 42.3667 -88.4744 134° Southeast 348 400 10,000 -120 Descending Chicago Center
08:19PM 42.3267 -88.3667 117° Southeast 350 403 9,900 -840 Descending Chicago Center
08:20PM 42.2772 -88.2853 129° Southeast 300 345 8,400 -1,440 Descending Chicago Center
08:21PM 42.2194 -88.1875 129° Southeast 283 326 7,000 -720 Descending Chicago Center
08:22PM 42.1678 -88.1128 133° Southeast 277 319 7,000  Level Chicago Center
08:23PM 42.1094 -88.0497 141° Southeast 272 313 7,000  Level Chicago Center
08:23PM 42.1000 -88.0167 111° Southeast 280 322 7,000  Level Chicago TRACON
08:24PM 42.1000 -87.9000 90° East 303 349 7,000 -180 Level Chicago TRACON
08:25PM 42.0833 -87.7833 101° East 282 325 6,700 -900 Descending Chicago TRACON
08:26PM 42.0833 -87.6833 90° East 273 314 5,300 -1,440 Descending Chicago TRACON
08:27PM 42.0833 -87.5833 90° East 257 296 4,000 -660 Descending Chicago TRACON
08:28PM 42.0833 -87.5000 90° East 243 280 4,000  Level Chicago TRACON
08:29PM 42.0167 -87.4667 160° South 236 272 4,000  Level Chicago TRACON
08:30PM 41.9833 -87.5333 236° Southwest 208 239 4,000  Level Chicago TRACON
08:31PM 41.9833 -87.6000 270° West 158 182 4,000  Level Chicago TRACON
08:32PM 41.9833 -87.6500 270° West 158 182 4,000 -300 Level Chicago TRACON
08:33PM 41.9833 -87.7000 270° West 162 186 3,500 -840 Descending Chicago TRACON
08:34PM 41.9833 -87.7667 270° West 177 204 2,500 -960 Descending Chicago TRACON
08:35PM 41.9833 -87.8333 270° West 138 159 1,600 -840 Descending Chicago TRACON
08:36PM 41.9833 -87.8833 270° West 132 152 900 -720 Descending Chicago TRACON
08:38PM 41.9667 -87.9000 244° Southwest  Level FlightAware Approximate